createdAt,value
2023-02-11T00:01:29.135Z,99799.22
2023-02-11T00:03:59.587Z,99809.59
2023-02-11T00:06:28.417Z,99807.78
2023-02-11T00:08:56.965Z,99793.72
2023-02-11T00:11:31.400Z,99804.47
2023-02-11T00:14:00.801Z,99786.88
2023-02-11T00:16:35.181Z,99805.91
2023-02-11T00:19:07.170Z,99807.59
2023-02-11T00:21:37.807Z,99764.28
2023-02-11T00:24:05.080Z,99787.97
2023-02-11T00:26:34.573Z,99812.19
2023-02-11T00:29:02.310Z,99800.91
2023-02-11T00:31:31.942Z,99808.69
2023-02-11T00:33:59.127Z,99813.03
2023-02-11T00:36:28.672Z,99813.50
2023-02-11T00:38:57.806Z,99804.63
2023-02-11T00:41:25.342Z,99797.59
2023-02-11T00:43:52.602Z,99801.69
2023-02-11T00:46:19.762Z,99799.66
2023-02-11T00:48:46.901Z,99810.19
2023-02-11T00:51:14.020Z,99800.66
2023-02-11T00:53:41.127Z,99811.50
2023-02-11T00:56:08.642Z,99815.94
2023-02-11T00:58:36.389Z,99819.72
2023-02-11T01:01:04.319Z,99821.13
2023-02-11T01:03:31.552Z,99822.22
2023-02-11T01:05:58.695Z,99823.91
2023-02-11T01:08:26.232Z,99829.25
2023-02-11T01:10:59.496Z,99810.75
2023-02-11T01:13:28.245Z,99819.28
2023-02-11T01:15:56.373Z,99827.59
2023-02-11T01:18:24.740Z,99830.72
2023-02-11T01:20:53.403Z,99835.31
2023-02-11T01:23:20.780Z,99834.84
2023-02-11T01:25:49.071Z,99822.56
2023-02-11T01:28:18.724Z,99838.50
2023-02-11T01:30:45.970Z,99851.44
2023-02-11T01:33:13.240Z,99852.19
2023-02-11T01:35:41.013Z,99860.34
2023-02-11T01:38:13.918Z,99850.56
2023-02-11T01:40:41.113Z,99845.63
2023-02-11T01:43:10.880Z,99854.69
2023-02-11T01:45:47.304Z,99847.19
2023-02-11T01:48:22.843Z,99835.91
2023-02-11T01:50:53.906Z,99831.41
2023-02-11T01:53:41.466Z,99848.22
2023-02-11T01:56:27.875Z,99847.56
2023-02-11T01:59:04.860Z,99844.81
2023-02-11T02:01:34.409Z,99846.66
2023-02-11T02:04:05.683Z,99850.69
2023-02-11T02:06:51.029Z,99851.06
2023-02-11T02:09:24.075Z,99850.91
2023-02-11T02:11:51.595Z,99843.66
2023-02-11T02:14:19.382Z,99837.13
2023-02-11T02:16:46.949Z,99838.28
2023-02-11T02:20:02.403Z,99840.09
2023-02-11T02:22:59.640Z,99841.16
2023-02-11T02:25:43.739Z,99832.75
2023-02-11T02:28:26.829Z,99846.31
2023-02-11T02:31:27.851Z,99835.94
2023-02-11T02:34:32.956Z,99838.19
2023-02-11T02:37:13.207Z,99842.38
2023-02-11T02:39:40.401Z,99851.28
2023-02-11T02:42:08.675Z,99856.47
2023-02-11T02:44:35.786Z,99847.59
2023-02-11T02:47:03.043Z,99847.44
2023-02-11T02:49:30.191Z,99844.06
2023-02-11T02:52:16.800Z,99853.97
2023-02-11T02:54:46.567Z,99849.09
2023-02-11T02:57:46.953Z,99848.72
2023-02-11T03:00:35.068Z,99842.03
2023-02-11T03:03:28.561Z,99841.13
2023-02-11T03:06:10.884Z,99831.38
2023-02-11T03:09:13.262Z,99839.19
2023-02-11T03:11:40.590Z,99825.19
2023-02-11T03:14:11.369Z,99842.25
2023-02-11T03:16:39.864Z,99830.50
2023-02-11T03:19:20.693Z,99834.63
2023-02-11T03:21:50.039Z,99842.97
2023-02-11T03:24:21.945Z,99845.00
2023-02-11T03:26:56.643Z,99837.78
2023-02-11T03:29:30.762Z,99834.63
2023-02-11T03:32:19.362Z,99838.53
2023-02-11T03:35:11.928Z,99835.00
2023-02-11T03:38:02.727Z,99832.97
2023-02-11T03:40:35.472Z,99826.69
2023-02-11T03:43:17.614Z,99823.16
2023-02-11T03:45:47.628Z,99828.34
2023-02-11T03:48:34.921Z,99824.47
2023-02-11T03:51:05.564Z,99827.22
2023-02-11T03:53:32.979Z,99823.44
2023-02-11T03:56:05.227Z,99816.22
2023-02-11T03:58:32.432Z,99824.25
2023-02-11T04:00:59.638Z,99828.06
2023-02-11T04:03:26.807Z,99827.78
2023-02-11T04:05:54.376Z,99825.38
2023-02-11T04:08:21.563Z,99818.91
2023-02-11T04:10:48.634Z,99816.31
2023-02-11T04:13:15.755Z,99820.53
2023-02-11T04:15:42.809Z,99814.44
2023-02-11T04:18:09.906Z,99818.69
2023-02-11T04:20:36.982Z,99806.63
2023-02-11T04:23:04.151Z,99819.03
2023-02-11T04:25:31.279Z,99819.31
2023-02-11T04:27:58.415Z,99814.75
2023-02-11T04:30:25.458Z,99819.38
2023-02-11T04:32:54.354Z,99809.03
2023-02-11T04:35:22.007Z,99822.19
2023-02-11T04:37:49.074Z,99820.16
2023-02-11T04:40:16.284Z,99819.38
2023-02-11T04:42:43.351Z,99815.13
2023-02-11T04:45:10.490Z,99810.47
2023-02-11T04:47:38.143Z,99815.63
2023-02-11T04:50:05.657Z,99821.38
2023-02-11T04:52:32.976Z,99817.56
2023-02-11T04:55:00.053Z,99825.28
2023-02-11T04:57:27.094Z,99830.44
2023-02-11T04:59:54.125Z,99819.91
2023-02-11T05:02:21.289Z,99832.94
2023-02-11T05:04:48.448Z,99825.47
2023-02-11T05:07:15.513Z,99826.00
2023-02-11T05:09:42.578Z,99822.50
2023-02-11T05:12:10.424Z,99831.94
2023-02-11T05:14:37.609Z,99831.94
2023-02-11T05:17:04.680Z,99840.28
2023-02-11T05:19:32.173Z,99816.41
2023-02-11T05:22:03.068Z,99832.22
2023-02-11T05:24:34.469Z,99816.50
2023-02-11T05:27:01.814Z,99827.66
2023-02-11T05:29:29.030Z,99831.84
2023-02-11T05:31:59.103Z,99810.25
2023-02-11T05:34:26.242Z,99832.63
2023-02-11T05:36:53.342Z,99826.53
2023-02-11T05:39:20.435Z,99830.44
2023-02-11T05:41:47.499Z,99829.00
2023-02-11T05:44:14.617Z,99821.44
2023-02-11T05:46:41.687Z,99825.78
2023-02-11T05:49:08.863Z,99820.91
2023-02-11T05:51:35.908Z,99819.56
2023-02-11T05:54:03.116Z,99814.44
2023-02-11T05:56:30.188Z,99825.28
2023-02-11T05:58:59.980Z,99822.56
2023-02-11T06:01:27.188Z,99805.00
2023-02-11T06:03:55.122Z,99810.47
2023-02-11T06:06:22.308Z,99834.59
2023-02-11T06:08:49.366Z,99826.47
2023-02-11T06:11:18.185Z,99833.09
2023-02-11T06:13:45.287Z,99830.28
2023-02-11T06:16:12.341Z,99819.16
2023-02-11T06:18:39.471Z,99826.22
2023-02-11T06:21:08.426Z,99823.78
2023-02-11T06:23:35.641Z,99810.94
2023-02-11T06:26:04.902Z,99830.28
2023-02-11T06:28:32.442Z,99821.19
2023-02-11T06:31:06.642Z,99825.38
2023-02-11T06:33:35.005Z,99818.78
2023-02-11T06:36:02.967Z,99817.69
2023-02-11T06:38:30.015Z,99816.69
2023-02-11T06:40:57.161Z,99813.34
2023-02-11T06:43:24.353Z,99817.84
2023-02-11T06:45:54.933Z,99823.94
2023-02-11T06:48:23.404Z,99823.66
2023-02-11T06:50:50.450Z,99817.91
2023-02-11T06:53:17.541Z,99816.06
2023-02-11T06:55:44.612Z,99822.88
2023-02-11T06:58:11.720Z,99818.69
2023-02-11T07:00:38.969Z,99823.88
2023-02-11T07:03:06.039Z,99770.56
2023-02-11T07:05:34.398Z,99805.69
2023-02-11T07:08:01.706Z,99828.28
2023-02-11T07:10:28.790Z,99820.00
2023-02-11T07:12:58.461Z,99824.44
2023-02-11T07:15:26.094Z,99824.34
2023-02-11T07:17:53.326Z,99811.50
2023-02-11T07:20:20.413Z,99823.91
2023-02-11T07:22:47.490Z,99818.03
2023-02-11T07:25:14.661Z,99814.09
2023-02-11T07:27:41.713Z,99828.53
2023-02-11T07:30:09.435Z,99814.09
2023-02-11T07:32:36.495Z,99807.34
2023-02-11T07:35:04.957Z,99800.81
2023-02-11T07:37:35.012Z,99808.09
2023-02-11T07:40:02.104Z,99804.94
2023-02-11T07:42:30.739Z,99811.06
2023-02-11T07:44:57.850Z,99811.31
2023-02-11T07:47:24.926Z,99795.13
2023-02-11T07:49:54.606Z,99797.28
2023-02-11T07:52:23.221Z,99790.97
2023-02-11T07:54:50.269Z,99793.59
2023-02-11T07:57:17.380Z,99798.19
2023-02-11T07:59:44.460Z,99788.72
2023-02-11T08:02:11.699Z,99795.81
2023-02-11T08:04:39.059Z,99792.25
2023-02-11T08:07:06.970Z,99785.31
2023-02-11T08:09:34.637Z,99793.03
2023-02-11T08:12:01.905Z,99785.50
2023-02-11T08:14:29.111Z,99774.94
2023-02-11T08:16:56.145Z,99774.34
2023-02-11T08:19:23.259Z,99778.66
2023-02-11T08:21:50.846Z,99776.22
2023-02-11T08:24:17.977Z,99776.91
2023-02-11T08:26:45.099Z,99773.66
2023-02-11T08:29:14.736Z,99772.50
2023-02-11T08:31:45.458Z,99742.97
2023-02-11T08:34:14.513Z,99758.38
2023-02-11T08:36:43.238Z,99762.34
2023-02-11T08:39:19.576Z,99755.03
2023-02-11T08:41:50.375Z,99755.66
2023-02-11T08:44:19.410Z,99743.50
2023-02-11T08:46:47.343Z,99751.50
2023-02-11T08:49:15.302Z,99727.16
2023-02-11T08:51:42.902Z,99724.84
2023-02-11T08:54:10.311Z,99735.22
2023-02-11T08:56:38.982Z,99727.75
2023-02-11T08:59:07.229Z,99716.19
2023-02-11T09:01:34.474Z,99727.09
2023-02-11T09:04:03.164Z,99717.50
2023-02-11T09:06:30.920Z,99714.41
2023-02-11T09:08:58.233Z,99705.94
2023-02-11T09:11:33.401Z,99699.84
2023-02-11T09:14:01.636Z,99683.50
2023-02-11T09:16:33.757Z,99683.97
2023-02-11T09:19:02.325Z,99677.31
2023-02-11T09:21:30.293Z,99665.88
2023-02-11T09:23:57.673Z,99649.19
2023-02-11T09:26:28.077Z,99649.53
2023-02-11T09:28:56.838Z,99641.38
2023-02-11T09:31:26.146Z,99638.97
2023-02-11T09:33:57.590Z,99624.84
2023-02-11T09:36:30.876Z,99623.31
2023-02-11T09:39:00.226Z,99618.72
2023-02-11T09:41:42.978Z,99629.88
2023-02-11T09:44:20.141Z,99627.28
2023-02-11T09:46:54.669Z,99621.88
2023-02-11T09:49:39.184Z,99623.56
2023-02-11T09:52:26.041Z,99610.00
2023-02-11T09:54:58.627Z,99613.47
2023-02-11T09:57:33.012Z,99605.81
2023-02-11T10:00:01.320Z,99600.44
2023-02-11T10:02:56.236Z,99609.56
2023-02-11T10:05:42.945Z,99605.03
2023-02-11T10:08:30.806Z,99598.13
2023-02-11T10:11:31.273Z,99607.13
2023-02-11T10:14:20.204Z,99606.72
2023-02-11T10:17:29.691Z,99596.66
2023-02-11T10:20:03.406Z,99593.63
2023-02-11T10:22:39.940Z,99579.91
2023-02-11T10:25:24.155Z,99583.03
2023-02-11T10:27:54.779Z,99576.78
2023-02-11T10:30:37.436Z,99563.88
2023-02-11T10:33:14.978Z,99553.03
2023-02-11T10:35:44.026Z,99561.00
2023-02-11T10:38:12.127Z,99558.31
2023-02-11T10:40:40.570Z,99554.16
2023-02-11T10:43:26.904Z,99547.34
2023-02-11T10:45:56.219Z,99543.72
2023-02-11T10:48:46.729Z,99533.91
2023-02-11T10:51:14.723Z,99523.06
2023-02-11T10:53:42.579Z,99518.47
2023-02-11T10:56:14.578Z,99501.94
2023-02-11T10:58:59.343Z,99505.78
2023-02-11T11:01:46.238Z,99500.91
2023-02-11T11:04:33.866Z,99493.44
2023-02-11T11:07:25.618Z,99485.66
2023-02-11T11:10:06.960Z,99476.78
2023-02-11T11:12:36.647Z,99480.16
2023-02-11T11:15:25.053Z,99468.44
2023-02-11T11:18:21.830Z,99462.47
2023-02-11T11:20:58.907Z,99457.13
2023-02-11T11:23:27.497Z,99462.31
2023-02-11T11:26:06.931Z,99453.44
2023-02-11T11:28:41.046Z,99451.25
2023-02-11T11:31:36.960Z,99441.53
2023-02-11T11:34:21.665Z,99421.81
2023-02-11T11:36:50.613Z,99410.53
2023-02-11T11:39:22.829Z,99409.19
2023-02-11T11:42:05.667Z,99396.31
2023-02-11T11:44:38.481Z,99382.69
2023-02-11T11:47:11.673Z,99386.16
2023-02-11T11:50:18.998Z,99384.94
2023-02-11T11:53:00.430Z,99382.28
2023-02-11T11:55:34.900Z,99375.16
2023-02-11T11:58:02.895Z,99370.50
2023-02-11T12:00:36.326Z,99378.25
2023-02-11T12:03:18.903Z,99374.31
2023-02-11T12:06:04.281Z,99364.75
2023-02-11T12:08:58.737Z,99338.81
2023-02-11T12:11:56.683Z,99355.28
2023-02-11T12:14:52.846Z,99353.94
2023-02-11T12:17:37.646Z,99350.38
2023-02-11T12:20:26.310Z,99340.22
2023-02-11T12:23:05.676Z,99343.47
2023-02-11T12:25:41.992Z,99332.78
2023-02-11T12:28:39.177Z,99336.84
2023-02-11T12:31:13.988Z,99340.59
2023-02-11T12:34:02.494Z,99338.81
2023-02-11T12:36:57.275Z,99344.47
2023-02-11T12:39:46.181Z,99335.16
2023-02-11T12:42:49.632Z,99323.75
2023-02-11T12:45:48.884Z,99312.16
2023-02-11T12:48:45.374Z,99313.09
2023-02-11T12:51:25.222Z,99282.31
2023-02-11T12:54:10.411Z,99307.16
2023-02-11T12:57:02.723Z,99298.00
2023-02-11T12:59:50.170Z,99292.91
2023-02-11T13:02:47.261Z,99289.09
2023-02-11T13:05:38.947Z,99263.44
2023-02-11T13:08:17.039Z,99264.19
2023-02-11T13:10:49.668Z,99250.13
2023-02-11T13:13:25.425Z,99248.13
2023-02-11T13:15:58.935Z,99247.88
2023-02-11T13:18:39.153Z,99233.16
2023-02-11T13:21:15.034Z,99229.66
2023-02-11T13:24:20.275Z,99209.16
2023-02-11T13:26:59.190Z,99218.56
2023-02-11T13:29:29.299Z,99216.59
2023-02-11T13:32:07.538Z,99201.59
2023-02-11T13:34:43.644Z,99190.47
2023-02-11T13:37:39.156Z,99196.50
2023-02-11T13:40:26.671Z,99178.91
2023-02-11T13:43:00.325Z,99176.81
2023-02-11T13:45:52.505Z,99165.56
2023-02-11T13:48:25.814Z,99152.72
2023-02-11T13:51:33.610Z,99141.38
2023-02-11T13:54:01.578Z,99142.69
2023-02-11T13:56:31.831Z,99126.75
2023-02-11T13:59:02.354Z,99135.69
2023-02-11T14:02:21.307Z,99135.72
2023-02-11T14:05:22.136Z,99123.78
2023-02-11T14:08:23.049Z,99119.28
2023-02-11T14:10:52.153Z,99098.16
2023-02-11T14:13:30.595Z,99087.34
2023-02-11T14:16:37.298Z,99081.66
2023-02-11T14:19:06.558Z,99083.06
2023-02-11T14:21:37.416Z,99065.13
2023-02-11T14:24:05.131Z,99069.50
2023-02-11T14:27:01.727Z,99061.16
2023-02-11T14:29:42.684Z,99047.69
2023-02-11T14:32:28.420Z,99055.47
2023-02-11T14:35:16.103Z,99041.06
2023-02-11T14:38:12.723Z,99038.44
2023-02-11T14:40:55.291Z,99026.91
2023-02-11T14:43:30.132Z,99034.91
2023-02-11T14:45:58.956Z,99020.97
2023-02-11T14:48:31.151Z,99023.69
2023-02-11T14:51:08.823Z,98993.44
2023-02-11T14:53:38.186Z,99003.00
2023-02-11T14:56:27.389Z,98988.91
2023-02-11T14:58:55.596Z,98991.09
2023-02-11T15:01:34.230Z,98977.59
2023-02-11T15:04:06.614Z,98978.41
2023-02-11T15:06:37.530Z,98971.22
2023-02-11T15:09:06.220Z,98952.13
2023-02-11T15:11:40.479Z,98947.88
2023-02-11T15:14:19.206Z,98947.38
2023-02-11T15:16:47.653Z,98923.59
2023-02-11T15:19:31.275Z,98934.38
2023-02-11T15:22:00.211Z,98929.94
2023-02-11T15:24:31.669Z,98940.81
2023-02-11T15:27:03.277Z,98930.19
2023-02-11T15:29:42.744Z,98910.84
2023-02-11T15:32:09.821Z,98916.53
2023-02-11T15:34:37.634Z,98906.13
2023-02-11T15:37:05.168Z,98891.47
2023-02-11T15:39:40.621Z,98901.03
2023-02-11T15:42:28.798Z,98891.78
2023-02-11T15:45:12.112Z,98892.56
2023-02-11T15:47:40.969Z,98887.25
2023-02-11T15:50:19.479Z,98882.28
2023-02-11T15:52:48.156Z,98883.28
2023-02-11T15:55:16.549Z,98881.38
2023-02-11T15:57:50.264Z,98872.44
2023-02-11T16:00:19.436Z,98869.09
2023-02-11T16:02:47.301Z,98855.59
2023-02-11T16:05:26.620Z,98863.25
2023-02-11T16:07:53.714Z,98865.50
2023-02-11T16:10:25.561Z,98848.91
2023-02-11T16:13:01.746Z,98846.78
2023-02-11T16:15:54.896Z,98851.06
2023-02-11T16:18:38.614Z,98837.63
2023-02-11T16:21:15.959Z,98851.06
2023-02-11T16:23:49.557Z,98837.91
2023-02-11T16:26:25.884Z,98834.69
2023-02-11T16:28:53.963Z,98837.91
2023-02-11T16:31:21.227Z,98822.66
2023-02-11T16:33:48.459Z,98809.78
2023-02-11T16:36:19.291Z,98823.06
2023-02-11T16:38:46.480Z,98815.72
2023-02-11T16:41:13.609Z,98803.69
2023-02-11T16:43:40.781Z,98798.59
2023-02-11T16:46:09.450Z,98809.63
2023-02-11T16:48:38.100Z,98793.06
2023-02-11T16:51:05.410Z,98796.59
2023-02-11T16:53:32.653Z,98773.06
2023-02-11T16:55:59.736Z,98789.63
2023-02-11T16:58:26.821Z,98773.03
2023-02-11T17:00:54.377Z,98772.47
2023-02-11T17:03:26.922Z,98759.88
2023-02-11T17:05:56.116Z,98765.03
2023-02-11T17:08:23.466Z,98751.97
2023-02-11T17:10:52.013Z,98741.53
2023-02-11T17:13:19.297Z,98735.66
2023-02-11T17:15:46.354Z,98726.47
2023-02-11T17:18:14.623Z,98729.13
2023-02-11T17:20:41.931Z,98730.59
2023-02-11T17:23:09.537Z,98716.31
2023-02-11T17:25:37.528Z,98702.69
2023-02-11T17:28:05.756Z,98715.63
2023-02-11T17:30:32.959Z,98708.34
2023-02-11T17:33:00.099Z,98704.75
2023-02-11T17:35:27.504Z,98708.97
2023-02-11T17:37:54.650Z,98674.66
2023-02-11T17:40:23.130Z,98679.09
2023-02-11T17:42:50.834Z,98686.53
2023-02-11T17:45:19.821Z,98696.09
2023-02-11T17:47:49.404Z,98673.81
2023-02-11T17:50:16.818Z,98665.03
2023-02-11T17:52:43.965Z,98678.25
2023-02-11T17:55:11.279Z,98669.16
2023-02-11T17:57:39.839Z,98666.34
2023-02-11T18:00:08.758Z,98636.78
2023-02-11T18:02:41.988Z,98648.22
2023-02-11T18:05:13.220Z,98588.72
2023-02-11T18:07:40.453Z,98640.97
2023-02-11T18:10:08.777Z,98637.56
2023-02-11T18:12:35.813Z,98624.03
2023-02-11T18:15:03.256Z,98611.72
2023-02-11T18:17:30.929Z,98606.69
2023-02-11T18:19:58.121Z,98604.38
2023-02-11T18:22:26.052Z,98601.25
2023-02-11T18:24:54.678Z,98595.94
2023-02-11T18:27:22.500Z,98584.09
2023-02-11T18:29:49.677Z,98591.25
2023-02-11T18:32:16.912Z,98584.97
2023-02-11T18:34:44.023Z,98577.63
2023-02-11T18:37:13.462Z,98577.34
2023-02-11T18:39:40.767Z,98568.59
2023-02-11T18:42:07.855Z,98569.53
2023-02-11T18:44:35.006Z,98564.78
2023-02-11T18:47:02.082Z,98558.00
2023-02-11T18:49:29.188Z,98551.56
2023-02-11T18:51:58.786Z,98548.56
2023-02-11T18:54:25.939Z,98543.50
2023-02-11T18:56:53.014Z,98536.88
2023-02-11T18:59:20.159Z,98529.13
2023-02-11T19:01:47.419Z,98527.38
2023-02-11T19:04:19.919Z,98523.25
2023-02-11T19:06:49.612Z,98527.88
2023-02-11T19:09:19.654Z,98517.22
2023-02-11T19:11:47.145Z,98525.97
2023-02-11T19:14:16.189Z,98520.22
2023-02-11T19:16:44.806Z,98511.44
2023-02-11T19:19:13.333Z,98509.00
2023-02-11T19:21:43.321Z,98504.97
2023-02-11T19:24:11.280Z,98502.50
2023-02-11T19:26:38.900Z,98493.19
2023-02-11T19:29:06.409Z,98494.84
2023-02-11T19:31:34.462Z,98464.88
2023-02-11T19:34:02.861Z,98485.25
2023-02-11T19:36:30.174Z,98487.16
2023-02-11T19:39:02.397Z,98488.25
2023-02-11T19:41:30.398Z,98493.75
2023-02-11T19:43:57.863Z,98498.25
2023-02-11T19:46:26.787Z,98496.19
2023-02-11T19:48:55.186Z,98486.22
2023-02-11T19:51:22.867Z,98492.63
2023-02-11T19:53:51.317Z,98494.53
2023-02-11T19:56:20.725Z,98476.78
2023-02-11T19:58:48.318Z,98475.09
2023-02-11T20:01:17.954Z,98475.94
2023-02-11T20:03:49.493Z,98465.03
2023-02-11T20:06:19.575Z,98460.34
2023-02-11T20:08:46.939Z,98462.13
2023-02-11T20:11:17.680Z,98469.09
2023-02-11T20:13:45.217Z,98447.50
2023-02-11T20:16:17.804Z,98433.41
2023-02-11T20:18:46.653Z,98429.75
2023-02-11T20:21:19.182Z,98439.31
2023-02-11T20:23:47.005Z,98427.00
2023-02-11T20:26:18.129Z,98428.91
2023-02-11T20:28:46.013Z,98426.19
2023-02-11T20:31:13.618Z,98417.44
2023-02-11T20:33:41.840Z,98425.63
2023-02-11T20:36:12.946Z,98422.88
2023-02-11T20:38:40.729Z,98419.59
2023-02-11T20:41:14.940Z,98420.69
2023-02-11T20:43:46.973Z,98390.44
2023-02-11T20:46:16.165Z,98398.00
2023-02-11T20:48:43.658Z,98396.59
2023-02-11T20:51:14.541Z,98396.03
2023-02-11T20:53:47.968Z,98405.38
2023-02-11T20:56:17.772Z,98396.88
2023-02-11T20:58:45.379Z,98398.66
2023-02-11T21:01:34.521Z,98399.34
2023-02-11T21:04:11.063Z,98403.56
2023-02-11T21:06:44.669Z,98396.91
2023-02-11T21:09:14.459Z,98391.41
2023-02-11T21:11:42.213Z,98394.44
2023-02-11T21:14:10.475Z,98371.16
2023-02-11T21:16:38.238Z,98398.34
2023-02-11T21:19:06.426Z,98393.59
2023-02-11T21:21:36.512Z,98392.19
2023-02-11T21:24:04.436Z,98390.06
2023-02-11T21:26:31.557Z,98392.94
2023-02-11T21:28:58.677Z,98386.75
2023-02-11T21:31:28.332Z,98377.81
2023-02-11T21:33:56.154Z,98385.31
2023-02-11T21:36:24.510Z,98385.63
2023-02-11T21:38:51.821Z,98379.06
2023-02-11T21:41:22.661Z,98367.44
2023-02-11T21:43:50.650Z,98377.41
2023-02-11T21:46:19.480Z,98368.38
2023-02-11T21:48:47.237Z,98367.00
2023-02-11T21:51:23.070Z,98371.16
2023-02-11T21:53:58.081Z,98369.22
2023-02-11T21:56:43.890Z,98364.53
2023-02-11T21:59:14.006Z,98363.41
2023-02-11T22:01:41.134Z,98351.84
2023-02-11T22:04:08.237Z,98358.81
2023-02-11T22:06:35.383Z,98363.56
2023-02-11T22:09:07.227Z,98362.06
2023-02-11T22:11:34.472Z,98347.69
2023-02-11T22:14:01.796Z,98364.44
2023-02-11T22:16:29.335Z,98361.19
2023-02-11T22:18:58.634Z,98356.22
2023-02-11T22:21:26.928Z,98355.53
2023-02-11T22:23:55.367Z,98349.16
2023-02-11T22:26:24.626Z,98361.94
2023-02-11T22:28:52.212Z,98344.41
2023-02-11T22:31:25.733Z,98321.81
2023-02-11T22:33:53.010Z,98352.06
2023-02-11T22:36:24.874Z,98355.03
2023-02-11T22:38:52.985Z,98357.31
2023-02-11T22:41:20.745Z,98359.31
2023-02-11T22:43:47.899Z,98348.03
2023-02-11T22:46:18.155Z,98343.31
2023-02-11T22:48:46.078Z,98340.41
2023-02-11T22:51:16.325Z,98355.69
2023-02-11T22:53:46.137Z,98351.66
2023-02-11T22:56:15.596Z,98349.59
2023-02-11T22:58:43.368Z,98352.81
2023-02-11T23:01:11.426Z,98352.09
2023-02-11T23:03:38.908Z,98356.00
2023-02-11T23:06:06.488Z,98343.66
2023-02-11T23:08:34.527Z,98353.50
2023-02-11T23:11:12.160Z,98358.59
2023-02-11T23:13:41.096Z,98362.34
2023-02-11T23:16:11.933Z,98361.41
2023-02-11T23:18:41.489Z,98364.66
2023-02-11T23:21:16.695Z,98363.16
2023-02-11T23:23:44.189Z,98354.78
2023-02-11T23:26:17.244Z,98361.69
2023-02-11T23:28:46.157Z,98358.34
2023-02-11T23:31:26.306Z,98360.25
2023-02-11T23:33:54.181Z,98363.91
2023-02-11T23:36:22.533Z,98368.75
2023-02-11T23:38:50.012Z,98366.88
2023-02-11T23:41:17.463Z,98366.19
2023-02-11T23:43:48.396Z,98360.03
2023-02-11T23:46:15.499Z,98368.00
2023-02-11T23:48:43.574Z,98373.00
2023-02-11T23:51:10.992Z,98374.91
2023-02-11T23:53:38.856Z,98374.06
2023-02-11T23:56:13.851Z,98362.81
2023-02-11T23:58:41.025Z,98384.19
